createdAt,value
2022-12-24T00:00:22.703Z,83.43
2022-12-24T00:02:24.208Z,83.03
2022-12-24T00:04:25.274Z,83.6
2022-12-24T00:06:26.422Z,83.6
2022-12-24T00:08:27.517Z,83.17
2022-12-24T00:10:28.556Z,82.9
2022-12-24T00:12:29.502Z,83.17
2022-12-24T00:16:32.928Z,84.08
2022-12-24T00:18:36.465Z,83.84
2022-12-24T00:20:35.256Z,84.34
2022-12-24T00:22:37.160Z,84.28
2022-12-24T00:24:39.076Z,84.93
2022-12-24T00:26:39.912Z,85.09
2022-12-24T00:28:41.225Z,85.26
2022-12-24T00:30:42.224Z,85.65
2022-12-24T00:32:43.458Z,85.95
2022-12-24T00:34:44.759Z,85.98
2022-12-24T00:36:46.313Z,86.08
2022-12-24T00:38:48.199Z,86.19
2022-12-24T00:40:50.077Z,86.66
2022-12-24T00:42:51.484Z,86.77
2022-12-24T00:44:52.377Z,86.99
2022-12-24T00:46:53.585Z,87.38
2022-12-24T00:48:55.155Z,87.77
2022-12-24T00:50:56.426Z,88.05
2022-12-24T00:52:57.314Z,88.28
2022-12-24T00:54:58.996Z,88.69
2022-12-24T00:59:02.350Z,89.28
2022-12-24T01:01:04.177Z,89.23
2022-12-24T01:03:05.403Z,89.18
2022-12-24T01:05:06.557Z,88.71
2022-12-24T01:07:07.898Z,88.18
2022-12-24T01:09:09.761Z,88.19
2022-12-24T01:11:11.112Z,88.24
2022-12-24T01:13:12.053Z,88.12
2022-12-24T01:15:13.091Z,88.52
2022-12-24T01:17:14.279Z,88.9
2022-12-24T01:19:15.637Z,88.69
2022-12-24T01:21:16.837Z,88.74
2022-12-24T01:23:18.250Z,88.94
2022-12-24T01:25:19.328Z,89.14
2022-12-24T01:27:20.655Z,88.94
2022-12-24T01:29:22.151Z,89.12
2022-12-24T01:31:24.117Z,89.12
2022-12-24T01:33:25.907Z,89.29
2022-12-24T01:35:27.139Z,89.53
2022-12-24T01:37:28.484Z,89.62
2022-12-24T01:41:31.794Z,89.58
2022-12-24T01:43:33.268Z,88.32
2022-12-24T01:45:35.075Z,89.01
2022-12-24T01:47:36.160Z,89.64
2022-12-24T01:49:37.405Z,90.09
2022-12-24T01:51:38.653Z,90.12
2022-12-24T01:53:39.973Z,90.16
2022-12-24T01:55:41.421Z,89.82
2022-12-24T01:57:43.167Z,89.93
2022-12-24T01:59:44.206Z,90.1
2022-12-24T02:01:45.550Z,90.04
2022-12-24T02:03:46.674Z,89.77
2022-12-24T02:05:47.654Z,89.99
2022-12-24T02:07:49.536Z,89.94
2022-12-24T02:09:51.033Z,89.77
2022-12-24T02:11:52.081Z,89.6
2022-12-24T02:13:53.761Z,89.62
2022-12-24T02:15:55.565Z,88.85
2022-12-24T02:17:57.217Z,88.07
2022-12-24T02:19:58.936Z,87.88
2022-12-24T02:24:01.605Z,87.36
2022-12-24T02:26:02.752Z,87.01
2022-12-24T02:28:04.506Z,85.26
2022-12-24T02:30:05.493Z,85.75
2022-12-24T02:32:06.695Z,86.08
2022-12-24T02:34:07.692Z,85.48
2022-12-24T02:36:09.063Z,85.88
2022-12-24T02:40:16.206Z,84.48
2022-12-24T02:42:13.605Z,83.88
2022-12-24T02:44:14.626Z,84.79
2022-12-24T02:46:16.030Z,84.99
2022-12-24T02:48:17.576Z,84.07
2022-12-24T02:50:19.241Z,83.96
2022-12-24T02:52:20.214Z,83.56
2022-12-24T02:54:21.813Z,83.8
2022-12-24T02:56:23.206Z,83.82
2022-12-24T02:58:24.826Z,83.66
2022-12-24T03:00:25.887Z,84.08
2022-12-24T03:02:27.662Z,84.49
2022-12-24T03:04:28.850Z,83.65
2022-12-24T03:06:30.674Z,83.83
2022-12-24T03:08:31.989Z,84.02
2022-12-24T03:10:33.265Z,84.2
2022-12-24T03:12:34.390Z,84.28
2022-12-24T03:14:35.528Z,84.01
2022-12-24T03:16:36.830Z,84.29
2022-12-24T03:18:38.569Z,83.83
2022-12-24T03:22:41.413Z,83.34
2022-12-24T03:24:43.059Z,84.09
2022-12-24T03:26:44.443Z,83.81
2022-12-24T03:28:46.047Z,83.67
2022-12-24T03:30:47.293Z,83.6
2022-12-24T03:32:48.274Z,83.34
2022-12-24T03:34:49.173Z,83.87
2022-12-24T03:36:50.228Z,83.93
2022-12-24T03:38:51.718Z,84.23
2022-12-24T03:40:53.568Z,84.11
2022-12-24T03:42:54.823Z,84.33
2022-12-24T03:44:55.945Z,84.77
2022-12-24T03:46:57.596Z,85.29
2022-12-24T03:48:59.437Z,84.85
2022-12-24T03:51:01.360Z,84.96
2022-12-24T03:53:02.675Z,85.42
2022-12-24T03:55:03.644Z,85.54
2022-12-24T03:57:05.008Z,85.86
2022-12-24T03:59:06.532Z,86.31
2022-12-24T04:01:07.589Z,86.91
2022-12-24T04:05:10.843Z,86.61
2022-12-24T04:07:12.573Z,86.46
2022-12-24T04:09:14.263Z,86.77
2022-12-24T04:09:58.069Z,86.98
2022-12-24T04:11:59.121Z,87.2
2022-12-24T04:14:00.743Z,87.49
2022-12-24T04:16:02.474Z,87.8
2022-12-24T04:18:04.070Z,88.22
2022-12-24T04:20:05.076Z,88.16
2022-12-24T04:22:06.542Z,87.89
2022-12-24T04:24:08.232Z,88.13
2022-12-24T04:26:10.075Z,87.78
2022-12-24T04:28:11.214Z,87.98
2022-12-24T04:32:13.991Z,88.39
2022-12-24T04:34:15.317Z,88.14
2022-12-24T04:36:16.730Z,88.42
2022-12-24T04:38:18.462Z,88.23
2022-12-24T04:40:20.346Z,88.46
2022-12-24T04:42:22.150Z,88.07
2022-12-24T04:44:23.980Z,88.04
2022-12-24T04:46:25.520Z,87.98
2022-12-24T04:48:26.332Z,87.92
2022-12-24T04:50:27.619Z,88.36
2022-12-24T04:52:29.083Z,87.78
2022-12-24T04:54:30.371Z,88.18
2022-12-24T04:56:31.728Z,88.37
2022-12-24T04:58:33.370Z,88.06
2022-12-24T05:00:34.710Z,88.13
2022-12-24T05:04:37.243Z,88.13
2022-12-24T05:06:38.217Z,88.5
2022-12-24T05:08:39.299Z,88.59
2022-12-24T05:10:41.181Z,88.18
2022-12-24T05:14:44.458Z,88.36
2022-12-24T05:16:45.806Z,88.55
2022-12-24T05:18:46.755Z,88.53
2022-12-24T05:20:47.836Z,88.77
2022-12-24T05:22:48.809Z,88.89
2022-12-24T05:24:50.604Z,88.7
2022-12-24T05:26:51.611Z,88.87
2022-12-24T05:28:53.109Z,88.79
2022-12-24T05:30:54.958Z,88.91
2022-12-24T05:32:56.474Z,89.12
2022-12-24T05:34:58.269Z,89.32
2022-12-24T05:36:59.558Z,89.44
2022-12-24T05:39:01.006Z,89.4
2022-12-24T05:41:02.753Z,89.43
2022-12-24T05:43:04.261Z,89.5
2022-12-24T05:45:05.576Z,89.53
2022-12-24T05:47:06.569Z,89.16
2022-12-24T05:49:07.503Z,89.46
2022-12-24T05:51:09.185Z,89.2
2022-12-24T05:53:10.476Z,89.34
2022-12-24T05:55:11.550Z,89.5
2022-12-24T05:57:13.446Z,89.66
2022-12-24T05:59:14.970Z,89.73
2022-12-24T06:03:18.196Z,90.17
2022-12-24T06:05:19.441Z,90.1
2022-12-24T06:07:21.141Z,90.23
2022-12-24T06:09:22.613Z,90.46
2022-12-24T06:13:25.369Z,90.65
2022-12-24T06:15:26.403Z,90.63
2022-12-24T06:17:27.964Z,90.62
2022-12-24T06:19:28.964Z,90.25
2022-12-24T06:21:30.440Z,90.5
2022-12-24T06:23:31.565Z,90.3
2022-12-24T06:25:32.715Z,90.26
2022-12-24T06:27:34.327Z,90.53
2022-12-24T06:29:35.823Z,90.46
2022-12-24T06:31:37.299Z,90.5
2022-12-24T06:33:38.844Z,90.58
2022-12-24T06:35:40.485Z,90.56
2022-12-24T06:37:42.062Z,90.51
2022-12-24T06:39:43.122Z,90.73
2022-12-24T06:41:44.351Z,90.92
2022-12-24T06:43:45.884Z,91.04
2022-12-24T06:45:47.336Z,90.94
2022-12-24T06:47:48.729Z,91.08
2022-12-24T06:49:49.892Z,90.46
2022-12-24T06:51:51.261Z,89.9
2022-12-24T06:55:54.407Z,90.06
2022-12-24T06:57:55.828Z,90.27
2022-12-24T06:59:57.305Z,90.23
2022-12-24T07:01:59.005Z,90.13
2022-12-24T07:04:00.342Z,90.09
2022-12-24T07:06:02.140Z,90.03
2022-12-24T07:08:03.329Z,89.88
2022-12-24T07:10:04.519Z,90.02
2022-12-24T07:12:06.314Z,90.12
2022-12-24T07:14:07.827Z,90.13
2022-12-24T07:16:09.640Z,90.16
2022-12-24T07:18:10.746Z,90.67
2022-12-24T07:20:12.393Z,90.46
2022-12-24T07:22:15.823Z,90.67
2022-12-24T07:24:16.154Z,90.26
2022-12-24T07:28:24.013Z,90.39
2022-12-24T07:30:20.844Z,90.12
2022-12-24T07:32:22.379Z,90.02
2022-12-24T07:34:24.308Z,90.06
2022-12-24T07:38:26.840Z,90.51
2022-12-24T07:40:27.957Z,90.24
2022-12-24T07:42:29.693Z,90.07
2022-12-24T07:44:30.895Z,90.18
2022-12-24T07:46:32.135Z,90.55
2022-12-24T07:48:33.817Z,90.54
2022-12-24T07:50:34.894Z,90.64
2022-12-24T07:52:36.208Z,90.66
2022-12-24T07:54:37.389Z,90.55
2022-12-24T07:56:38.942Z,90.71
2022-12-24T07:58:40.519Z,90.53
2022-12-24T08:00:41.635Z,90.62
2022-12-24T08:02:43.392Z,90.58
2022-12-24T08:04:44.813Z,90.64
2022-12-24T08:06:46.428Z,90.7
2022-12-24T08:10:48.750Z,90.4
2022-12-24T08:12:49.734Z,89.83
2022-12-24T08:14:51.105Z,90.04
2022-12-24T08:16:52.824Z,89.7
2022-12-24T08:20:56.410Z,89.37
2022-12-24T08:22:57.485Z,89.38
2022-12-24T08:24:59.018Z,89.23
2022-12-24T08:27:00.350Z,89.36
2022-12-24T08:29:01.400Z,89.25
2022-12-24T08:31:02.482Z,89.05
2022-12-24T08:33:04.064Z,88.81
2022-12-24T08:37:06.175Z,88.67
2022-12-24T08:39:08.014Z,88.51
2022-12-24T08:41:09.308Z,88.5
2022-12-24T08:43:10.489Z,88.15
2022-12-24T08:45:11.946Z,88.36
2022-12-24T08:47:12.870Z,88.13
2022-12-24T08:49:13.956Z,88
2022-12-24T08:51:15.377Z,87.71
2022-12-24T08:53:16.477Z,87.68
2022-12-24T08:55:18.145Z,87.44
2022-12-24T08:57:19.640Z,87.31
2022-12-24T08:59:21.243Z,87.38
2022-12-24T09:01:22.248Z,87.14
2022-12-24T09:03:27.217Z,87.04
2022-12-24T09:05:25.007Z,86.97
2022-12-24T09:07:26.804Z,87.1
2022-12-24T09:09:30.388Z,86.8
2022-12-24T09:11:29.711Z,86.84
2022-12-24T09:13:31.262Z,86.73
2022-12-24T09:15:33.006Z,86.59
2022-12-24T09:19:36.324Z,85.78
2022-12-24T09:21:37.480Z,85.71
2022-12-24T09:23:38.908Z,85.55
2022-12-24T09:25:39.794Z,85.36
2022-12-24T09:27:42.150Z,85.43
2022-12-24T09:29:43.087Z,85.54
2022-12-24T09:31:44.551Z,85.52
2022-12-24T09:33:46.250Z,85.52
2022-12-24T09:35:47.977Z,85.68
2022-12-24T09:37:49.395Z,85.18
2022-12-24T09:39:50.648Z,85.31
2022-12-24T09:41:51.549Z,85.84
2022-12-24T09:43:52.915Z,85.29
2022-12-24T09:45:54.359Z,85.3
2022-12-24T09:47:55.877Z,84.8
2022-12-24T09:49:57.383Z,84.77
2022-12-24T09:51:58.340Z,84.64
2022-12-24T09:53:59.525Z,84.12
2022-12-24T09:56:01.084Z,83.49
2022-12-24T09:58:02.702Z,83.64
2022-12-24T10:02:05.448Z,83.44
2022-12-24T10:04:06.467Z,82.83
2022-12-24T10:06:07.330Z,83.77
2022-12-24T10:08:08.698Z,84.2
2022-12-24T10:10:09.719Z,84.63
2022-12-24T10:12:10.922Z,84.65
2022-12-24T10:14:12.727Z,84.89
2022-12-24T10:16:14.208Z,85.39
2022-12-24T10:18:15.092Z,85.09
2022-12-24T10:20:16.372Z,85.07
2022-12-24T10:22:18.102Z,85.21
2022-12-24T10:24:19.311Z,85.49
2022-12-24T10:26:20.888Z,85.64
2022-12-24T10:28:22.102Z,85.09
2022-12-24T10:30:23.403Z,85.42
2022-12-24T10:32:25.011Z,85.49
2022-12-24T10:34:26.198Z,85.24
2022-12-24T10:36:27.201Z,85.13
2022-12-24T10:38:28.491Z,84.8
2022-12-24T10:40:30.151Z,84.92
2022-12-24T10:44:33.273Z,84.81
2022-12-24T10:46:34.740Z,84.59
2022-12-24T10:50:37.243Z,84.89
2022-12-24T10:52:38.282Z,84.7
2022-12-24T10:54:39.962Z,84.73
2022-12-24T10:55:23.744Z,84.73
2022-12-24T10:57:25.460Z,84.4
2022-12-24T10:59:27.228Z,84.35
2022-12-24T11:01:28.514Z,84.13
2022-12-24T11:03:29.763Z,83.73
2022-12-24T11:05:31.587Z,83.65
2022-12-24T11:07:33.359Z,83.92
2022-12-24T11:09:35.226Z,84.01
2022-12-24T11:11:36.244Z,83.41
2022-12-24T11:13:38.656Z,83.95
2022-12-24T11:15:39.342Z,84.26
2022-12-24T11:17:40.240Z,83.62
2022-12-24T11:19:41.260Z,82.74
2022-12-24T11:21:42.359Z,82.47
2022-12-24T11:23:43.731Z,82.83
2022-12-24T11:25:45.010Z,82.98
2022-12-24T11:27:46.128Z,82.98
2022-12-24T11:29:47.930Z,83.52
2022-12-24T11:31:49.325Z,83.37
2022-12-24T11:33:50.708Z,83.57
2022-12-24T11:37:53.109Z,83.61
2022-12-24T11:39:54.512Z,83.28
2022-12-24T11:41:55.617Z,82.7
2022-12-24T11:43:56.860Z,82.25
2022-12-24T11:45:58.667Z,82.63
2022-12-24T11:48:00.251Z,82.81
2022-12-24T11:50:17.497Z,83.01
2022-12-24T11:52:02.393Z,82.53
2022-12-24T11:54:03.835Z,82.48
2022-12-24T11:56:04.975Z,82.38
2022-12-24T11:58:06.043Z,82.13
2022-12-24T12:00:07.451Z,82.82
2022-12-24T12:02:08.807Z,83.09
2022-12-24T12:04:10.292Z,82.97
2022-12-24T12:06:11.449Z,82.82
2022-12-24T12:10:13.656Z,82.43
2022-12-24T12:12:14.625Z,82.36
2022-12-24T12:14:15.782Z,82.67
2022-12-24T12:16:16.917Z,82.56
2022-12-24T12:20:19.453Z,82.61
2022-12-24T12:22:20.786Z,82.33
2022-12-24T12:24:25.516Z,81.52
2022-12-24T12:26:23.610Z,80.72
2022-12-24T12:28:25.348Z,80.85
2022-12-24T12:30:26.553Z,81.51
2022-12-24T12:32:28.283Z,81.36
2022-12-24T12:34:29.932Z,81.64
2022-12-24T12:36:31.296Z,81.41
2022-12-24T12:38:32.888Z,81.09
2022-12-24T12:40:33.929Z,80.45
2022-12-24T12:42:35.730Z,80.02
2022-12-24T12:44:37.144Z,80.32
2022-12-24T12:46:39.006Z,78.39
2022-12-24T12:48:39.898Z,78.72
2022-12-24T12:50:41.563Z,78.14
2022-12-24T12:52:43.083Z,79.71
2022-12-24T12:54:44.448Z,79.61
2022-12-24T12:56:45.537Z,80.17
2022-12-24T12:58:47.071Z,80.56
2022-12-24T13:00:48.965Z,80.75
2022-12-24T13:02:49.991Z,80.73
2022-12-24T13:04:51.288Z,80.95
2022-12-24T13:08:54.808Z,82.47
2022-12-24T13:10:55.770Z,82.07
2022-12-24T13:12:57.608Z,82.12
2022-12-24T13:14:58.886Z,82.23
2022-12-24T13:19:01.473Z,82.54
2022-12-24T13:21:02.983Z,82.4
2022-12-24T13:23:04.426Z,82.44
2022-12-24T13:25:05.620Z,82.36
2022-12-24T13:27:07.460Z,82.36
2022-12-24T13:29:08.987Z,82.52
2022-12-24T13:31:10.500Z,82.93
2022-12-24T13:33:12.090Z,82.84
2022-12-24T13:35:13.572Z,83.11
2022-12-24T13:37:15.005Z,83.65
2022-12-24T13:39:16.432Z,84.02
2022-12-24T13:41:17.799Z,83.88
2022-12-24T13:43:19.505Z,84.12
2022-12-24T13:45:20.477Z,84.51
2022-12-24T13:47:25.503Z,84.67
2022-12-24T13:49:22.701Z,84.8
2022-12-24T13:51:24.084Z,84.9
2022-12-24T13:53:25.309Z,85.01
2022-12-24T13:55:26.432Z,85.03
2022-12-24T13:57:27.783Z,84.64
2022-12-24T14:01:30.429Z,85.08
2022-12-24T14:03:31.552Z,85.15
2022-12-24T14:05:33.300Z,85.68
2022-12-24T14:07:34.716Z,85.65
2022-12-24T14:09:35.923Z,85.96
2022-12-24T14:11:38.115Z,86.19
2022-12-24T14:13:38.634Z,86.73
2022-12-24T14:15:40.126Z,87.19
2022-12-24T14:17:41.652Z,87.49
2022-12-24T14:19:43.083Z,87.62
2022-12-24T14:21:44.978Z,87.87
2022-12-24T14:23:46.705Z,88.28
2022-12-24T14:25:48.208Z,88.4
2022-12-24T14:27:49.346Z,88.47
2022-12-24T14:29:50.341Z,88.59
2022-12-24T14:31:52.263Z,88.61
2022-12-24T14:33:53.858Z,88.53
2022-12-24T14:35:55.746Z,88.42
2022-12-24T14:37:56.999Z,88.41
2022-12-24T14:39:58.215Z,88.45
2022-12-24T14:44:01.063Z,88.59
2022-12-24T14:46:02.466Z,89.44
2022-12-24T14:48:04.241Z,89.59
2022-12-24T14:50:05.888Z,89.79
2022-12-24T14:52:08.773Z,90.07
2022-12-24T14:54:08.415Z,89.79
2022-12-24T14:56:10.231Z,89.51
2022-12-24T14:58:11.857Z,89.66
2022-12-24T15:00:13.525Z,89.62
2022-12-24T15:02:14.657Z,89.53
2022-12-24T15:04:15.925Z,89.36
2022-12-24T15:06:17.362Z,89.31
2022-12-24T15:08:18.281Z,89.54
2022-12-24T15:10:19.521Z,89.36
2022-12-24T15:12:21.042Z,89.88
2022-12-24T15:16:23.802Z,89.82
2022-12-24T15:18:25.026Z,90.27
2022-12-24T15:20:26.524Z,90.3
2022-12-24T15:22:27.497Z,90.31
2022-12-24T15:24:28.628Z,90.32
2022-12-24T15:26:29.912Z,90.38
2022-12-24T15:28:30.898Z,90.7
2022-12-24T15:32:33.948Z,90.81
2022-12-24T15:34:35.627Z,91.06
2022-12-24T15:36:37.508Z,91.2
2022-12-24T15:38:38.608Z,91.17
2022-12-24T15:42:41.415Z,91
2022-12-24T15:44:42.496Z,90.83
2022-12-24T15:46:44.184Z,90.84
2022-12-24T15:48:45.998Z,91.03
2022-12-24T15:50:47.214Z,91.15
2022-12-24T15:52:48.580Z,91.35
2022-12-24T15:54:55.627Z,91.58
2022-12-24T15:56:51.321Z,91.55
2022-12-24T15:58:52.900Z,91.49
2022-12-24T16:00:54.146Z,91.19
2022-12-24T16:02:55.401Z,91.32
2022-12-24T16:04:56.595Z,91.45
2022-12-24T16:06:57.764Z,91.63
2022-12-24T16:08:59.209Z,91.57
2022-12-24T16:11:00.543Z,91.7
2022-12-24T16:13:02.218Z,91.96
2022-12-24T16:15:03.944Z,92.1
2022-12-24T16:17:04.939Z,92.06
2022-12-24T16:19:06.427Z,92.13
2022-12-24T16:21:08.350Z,92.35
2022-12-24T16:25:11.115Z,91.99
2022-12-24T16:27:12.925Z,92.08
2022-12-24T16:29:14.353Z,92.06
2022-12-24T16:31:15.795Z,92.14
2022-12-24T16:33:17.306Z,92.23
2022-12-24T16:35:19.162Z,92.11
2022-12-24T16:37:20.722Z,92.11
2022-12-24T16:39:21.806Z,92.24
2022-12-24T16:41:23.420Z,92.32
2022-12-24T16:43:24.584Z,92.41
2022-12-24T16:45:26.210Z,92.5
2022-12-24T16:47:27.154Z,92.52
2022-12-24T16:49:28.609Z,92.57
2022-12-24T16:51:30.452Z,92.62
2022-12-24T16:53:32.067Z,92.68
2022-12-24T16:57:34.379Z,92.7
2022-12-24T16:59:35.481Z,92.81
2022-12-24T17:01:36.899Z,92.79
2022-12-24T17:03:38.327Z,92.92
2022-12-24T17:07:43.543Z,92.9
2022-12-24T17:09:42.880Z,93.13
2022-12-24T17:11:44.228Z,93.21
2022-12-24T17:13:45.461Z,93.18
2022-12-24T17:15:47.007Z,93.17
2022-12-24T17:17:48.380Z,93.03
2022-12-24T17:19:49.548Z,93.13
2022-12-24T17:21:50.899Z,93.3
2022-12-24T17:23:52.473Z,93.43
2022-12-24T17:25:54.024Z,93.67
2022-12-24T17:27:55.872Z,93.49
2022-12-24T17:29:57.472Z,93.46
2022-12-24T17:31:59.090Z,93.35
2022-12-24T17:34:00.119Z,93.24
2022-12-24T17:36:01.872Z,93.15
2022-12-24T17:40:04.910Z,92.78
2022-12-24T17:40:48.731Z,92.68
2022-12-24T17:44:51.006Z,92.65
2022-12-24T17:46:52.580Z,92.68
2022-12-24T17:50:55.482Z,92.79
2022-12-24T17:52:56.336Z,92.79
2022-12-24T17:54:57.642Z,92.65
2022-12-24T17:56:59.476Z,92.62
2022-12-24T18:01:02.311Z,92.47
2022-12-24T18:03:03.483Z,92.46
2022-12-24T18:05:04.793Z,92.75
2022-12-24T18:07:06.438Z,92.63
2022-12-24T18:09:07.559Z,92.64
2022-12-24T18:11:08.803Z,92.26
2022-12-24T18:13:13.907Z,92.29
2022-12-24T18:15:12.081Z,92.12
2022-12-24T18:17:13.533Z,92.2
2022-12-24T18:19:15.453Z,92.23
2022-12-24T18:21:16.465Z,92.41
2022-12-24T18:23:17.559Z,92.56
2022-12-24T18:25:19.361Z,92.3
2022-12-24T18:27:20.692Z,92.2
2022-12-24T18:29:21.958Z,92.32
2022-12-24T18:31:23.921Z,91.92
2022-12-24T18:33:24.774Z,91.77
2022-12-24T18:35:25.756Z,91.87
2022-12-24T18:37:27.239Z,91.76
2022-12-24T18:39:28.803Z,91.83
2022-12-24T18:43:31.257Z,91.79
2022-12-24T18:45:32.553Z,91.78
2022-12-24T18:47:33.752Z,91.69
2022-12-24T18:49:35.547Z,91.77
2022-12-24T18:51:37.189Z,91.86
2022-12-24T18:53:38.716Z,91.79
2022-12-24T18:55:40.236Z,91.8
2022-12-24T18:57:41.974Z,91.75
2022-12-24T18:59:43.761Z,91.75
2022-12-24T19:01:44.888Z,91.76
2022-12-24T19:03:45.852Z,91.77
2022-12-24T19:05:47.004Z,91.47
2022-12-24T19:07:48.414Z,91.25
2022-12-24T19:09:49.467Z,91.24
2022-12-24T19:11:50.983Z,91.35
2022-12-24T19:15:54.145Z,91.68
2022-12-24T19:17:55.827Z,91.67
2022-12-24T19:19:56.984Z,91.79
2022-12-24T19:21:58.397Z,91.57
2022-12-24T19:26:01.035Z,91.63
2022-12-24T19:28:01.991Z,91.76
2022-12-24T19:30:03.820Z,91.72
2022-12-24T19:32:05.142Z,91.56
2022-12-24T19:34:06.415Z,91.37
2022-12-24T19:36:08.070Z,91.4
2022-12-24T19:38:09.878Z,91.32
2022-12-24T19:40:10.913Z,91.21
2022-12-24T19:42:12.108Z,91.12
2022-12-24T19:44:13.522Z,91.11
2022-12-24T19:46:15.480Z,91.13
2022-12-24T19:48:17.169Z,91.12
2022-12-24T19:50:18.983Z,91.09
2022-12-24T19:52:20.143Z,91.22
2022-12-24T19:54:21.837Z,91.26
2022-12-24T19:56:23.076Z,91.05
2022-12-24T19:58:24.169Z,90.95
2022-12-24T20:00:26.071Z,90.89
2022-12-24T20:02:27.741Z,90.98
2022-12-24T20:04:29.433Z,90.73
2022-12-24T20:08:33.211Z,90.72
2022-12-24T20:10:34.808Z,90.62
2022-12-24T20:12:36.307Z,90.89
2022-12-24T20:14:38.083Z,90.88
2022-12-24T20:16:39.799Z,90.7
2022-12-24T20:18:41.532Z,90.6
2022-12-24T20:20:43.093Z,90.48
2022-12-24T20:22:44.585Z,90.21
2022-12-24T20:24:45.584Z,90.17
2022-12-24T20:26:46.612Z,90.12
2022-12-24T20:28:48.249Z,90.02
2022-12-24T20:30:49.811Z,90.06
2022-12-24T20:32:50.761Z,90.1
2022-12-24T20:34:52.376Z,90.28
2022-12-24T20:36:53.570Z,90.37
2022-12-24T20:38:54.974Z,90.44
2022-12-24T20:40:56.659Z,90.86
2022-12-24T20:42:58.353Z,91.01
2022-12-24T20:44:59.403Z,91.11
2022-12-24T20:47:00.492Z,91.07
2022-12-24T20:49:01.498Z,91.15
2022-12-24T20:51:03.020Z,91.33
2022-12-24T20:53:04.341Z,91.35
2022-12-24T20:57:07.442Z,91.41
2022-12-24T20:59:08.934Z,91.38
2022-12-24T21:01:10.681Z,91.51
2022-12-24T21:03:12.568Z,91.96
2022-12-24T21:07:15.298Z,92.53
2022-12-24T21:09:16.428Z,92.55
2022-12-24T21:11:17.568Z,92.48
2022-12-24T21:13:18.752Z,92.61
2022-12-24T21:15:19.793Z,92.41
2022-12-24T21:17:21.767Z,92.17
2022-12-24T21:19:22.735Z,92.26
2022-12-24T21:21:23.706Z,92.57
2022-12-24T21:23:25.359Z,92.22
2022-12-24T21:25:26.487Z,91.93
2022-12-24T21:27:27.853Z,91.91
2022-12-24T21:29:29.369Z,91.96
2022-12-24T21:31:30.498Z,92.07
2022-12-24T21:33:36.313Z,92.21
2022-12-24T21:35:33.318Z,92.26
2022-12-24T21:37:35.005Z,92.09
2022-12-24T21:39:36.282Z,92.1
2022-12-24T21:41:37.342Z,92.37
2022-12-24T21:43:38.850Z,92.28
2022-12-24T21:45:39.877Z,92.39
2022-12-24T21:49:42.750Z,92.59
2022-12-24T21:51:43.771Z,92.67
2022-12-24T21:53:45.060Z,92.77
2022-12-24T21:55:46.279Z,92.83
2022-12-24T21:57:48.127Z,93.03
2022-12-24T21:59:49.974Z,93.1
2022-12-24T22:01:51.731Z,93.01
2022-12-24T22:03:53.245Z,92.98
2022-12-24T22:05:54.793Z,93.1
2022-12-24T22:07:55.993Z,93.11
2022-12-24T22:09:57.505Z,93.23
2022-12-24T22:11:58.707Z,93.24
2022-12-24T22:14:00.078Z,93.29
2022-12-24T22:16:01.402Z,93.37
2022-12-24T22:18:02.577Z,93.31
2022-12-24T22:22:04.941Z,93.45
2022-12-24T22:24:06.404Z,93.5
2022-12-24T22:26:07.612Z,93.53
2022-12-24T22:28:08.815Z,93.47
2022-12-24T22:30:10.736Z,93.36
2022-12-24T22:32:12.130Z,93.5
2022-12-24T22:34:13.882Z,93.42
2022-12-24T22:36:15.540Z,93.33
2022-12-24T22:38:16.661Z,93.39
2022-12-24T22:40:18.543Z,93.44
2022-12-24T22:42:19.708Z,93.33
2022-12-24T22:44:20.832Z,93.4
2022-12-24T22:46:21.972Z,93.38
2022-12-24T22:48:23.084Z,93.31
2022-12-24T22:50:24.970Z,93.51
2022-12-24T22:54:26.923Z,93.82
2022-12-24T22:56:28.811Z,93.9
2022-12-24T22:58:30.448Z,93.93
2022-12-24T23:00:31.621Z,94
2022-12-24T23:04:33.963Z,94.74
2022-12-24T23:06:35.261Z,94.7
2022-12-24T23:08:36.744Z,94.78
2022-12-24T23:10:38.191Z,94.78
2022-12-24T23:12:39.656Z,94.76
2022-12-24T23:14:41.511Z,94.62
2022-12-24T23:16:42.796Z,94.53
2022-12-24T23:18:44.109Z,94.41
2022-12-24T23:20:45.884Z,94.29
2022-12-24T23:22:47.326Z,94.15
2022-12-24T23:24:48.717Z,94.24
2022-12-24T23:26:50.390Z,94.23
2022-12-24T23:28:51.352Z,94.18
2022-12-24T23:30:53.068Z,94.14
2022-12-24T23:32:54.873Z,94.46
2022-12-24T23:34:56.386Z,94.58
2022-12-24T23:36:57.695Z,94.91
2022-12-24T23:38:59.265Z,94.16
2022-12-24T23:41:00.868Z,93.61
2022-12-24T23:43:02.503Z,93.23
2022-12-24T23:45:03.839Z,92.87
2022-12-24T23:47:05.452Z,92.54
2022-12-24T23:49:07.222Z,92.3
2022-12-24T23:53:10.175Z,92.39
2022-12-24T23:55:11.587Z,92.5
2022-12-24T23:57:13.333Z,91.97
2022-12-24T23:59:14.499Z,91.91
